Time;durP1;ratioP1;P1;durP2;ratioP2;P2;SDS_P1;SDS_P2;PMS_P1;PMS_P2;Temp;Humidity;BMP_temperature;BMP_pressure;BME280_temperature;BME280_humidity;BME280_pressure;Samples;Min_cycle;Max_cycle;Signal;HPM_P1;HPM_P2
2021/07/29 00:01:15;;;;;;;2.60;2.40;;;;;;;17.68;80.24;96624.22;5030855;28;20214;-63
2021/07/29 00:03:41;;;;;;;2.80;2.60;;;;;;;17.72;79.95;96617.31;5032696;28;20702;-63
2021/07/29 00:06:12;;;;;;;5.00;2.70;;;;;;;17.57;80.55;96618.16;5032022;28;20171;-64
2021/07/29 00:08:37;;;;;;;4.30;2.90;;;;;;;17.61;80.40;96626.41;5033286;28;20190;-63
2021/07/29 00:11:03;;;;;;;2.97;2.50;;;;;;;17.64;80.20;96618.69;5031301;28;20525;-67
2021/07/29 00:13:28;;;;;;;2.83;2.50;;;;;;;17.52;80.98;96623.50;5031832;28;20179;-64
2021/07/29 00:15:54;;;;;;;3.10;2.80;;;;;;;17.48;81.35;96622.47;5032620;28;20179;-62
2021/07/29 00:21:03;;;;;;;3.17;2.87;;;;;;;17.50;81.16;96622.97;5032280;28;20209;-68
2021/07/29 00:23:28;;;;;;;2.93;2.60;;;;;;;17.69;80.21;96610.69;5031772;28;20285;-63
2021/07/29 00:25:54;;;;;;;3.73;2.50;;;;;;;17.82;79.62;96614.59;5031035;28;20233;-63
2021/07/29 00:28:19;;;;;;;2.70;2.50;;;;;;;17.63;80.39;96618.94;5031630;28;20171;-63
2021/07/29 00:30:45;;;;;;;3.17;2.87;;;;;;;17.56;80.81;96621.88;5032602;28;20604;-63
2021/07/29 00:33:10;;;;;;;3.23;2.93;;;;;;;17.46;81.46;96621.94;5031625;28;20183;-63
2021/07/29 00:35:36;;;;;;;3.30;3.00;;;;;;;17.47;81.56;96628.81;5032326;28;20183;-63
2021/07/29 00:38:02;;;;;;;3.23;2.90;;;;;;;17.42;81.73;96629.66;5031955;28;20210;-63
2021/07/29 00:40:28;;;;;;;5.53;2.90;;;;;;;17.62;80.51;96625.31;5031329;28;20570;-63
2021/07/29 00:42:54;;;;;;;4.67;2.97;;;;;;;17.51;81.15;96627.22;5029345;28;20615;-63
2021/07/29 00:45:19;;;;;;;2.87;2.60;;;;;;;17.48;81.42;96629.63;5031371;28;20178;-63
2021/07/29 00:47:46;;;;;;;4.10;3.03;;;;;;;17.45;81.45;96620.34;5031978;28;20620;-63
2021/07/29 00:50:13;;;;;;;2.70;2.40;;;;;;;17.37;82.13;96626.25;5030638;28;20526;-63
2021/07/29 00:52:39;;;;;;;3.50;2.77;;;;;;;17.24;82.45;96624.19;5031966;28;20644;-63
2021/07/29 00:55:05;;;;;;;3.20;2.70;;;;;;;17.29;82.57;96626.78;5031816;28;20175;-68
2021/07/29 00:57:31;;;;;;;2.77;2.57;;;;;;;17.29;82.52;96614.34;5031767;28;20191;-63
2021/07/29 00:59:57;;;;;;;2.60;2.40;;;;;;;17.28;82.64;96618.06;5031728;28;20174;-63
2021/07/29 01:02:23;;;;;;;6.00;3.03;;;;;;;17.22;82.95;96610.44;5031080;28;20269;-63
2021/07/29 01:04:48;;;;;;;2.63;2.40;;;;;;;17.27;82.71;96613.84;5031568;28;20244;-63
2021/07/29 01:07:14;;;;;;;3.33;2.90;;;;;;;17.32;82.80;96613.03;5031159;28;20304;-63
2021/07/29 01:09:42;;;;;;;3.20;2.90;;;;;;;17.12;83.92;96613.09;5031932;28;20262;-63
2021/07/29 01:12:08;;;;;;;3.20;2.90;;;;;;;17.04;84.72;96617.13;5030957;28;20191;-67
2021/07/29 01:14:34;;;;;;;3.67;2.83;;;;;;;17.16;84.18;96617.59;5031475;28;20312;-62
2021/07/29 01:17:00;;;;;;;4.53;3.13;;;;;;;17.18;83.91;96617.31;5032115;28;20656;-64
2021/07/29 01:19:26;;;;;;;3.90;3.30;;;;;;;17.13;84.23;96612.84;5031054;28;20175;-62
2021/07/29 01:21:53;;;;;;;3.80;3.20;;;;;;;17.12;84.70;96613.91;5030205;28;20194;-63
2021/07/29 01:24:19;;;;;;;4.37;3.20;;;;;;;17.27;83.49;96613.84;5030729;28;20273;-63
2021/07/29 01:26:45;;;;;;;3.40;3.10;;;;;;;17.28;83.71;96614.59;5031586;28;20178;-64
2021/07/29 01:29:10;;;;;;;5.33;3.10;;;;;;;17.26;83.87;96609.59;5030893;28;20534;-64
2021/07/29 01:31:37;;;;;;;3.27;2.97;;;;;;;17.13;84.49;96607.53;5031608;28;20182;-63
2021/07/29 01:34:02;;;;;;;3.23;2.93;;;;;;;17.13;84.69;96604.09;5031621;28;20186;-63
2021/07/29 01:36:27;;;;;;;3.50;3.20;;;;;;;17.13;84.79;96602.25;5030436;28;20538;-63
2021/07/29 01:38:53;;;;;;;3.37;3.07;;;;;;;17.05;85.19;96600.94;5029697;28;20222;-64
2021/07/29 01:41:19;;;;;;;4.03;3.23;;;;;;;17.10;84.90;96596.72;5029304;28;20203;-65
2021/07/29 01:43:44;;;;;;;3.37;3.07;;;;;;;17.16;84.68;96601.72;5013672;28;20286;-63
2021/07/29 01:46:09;;;;;;;3.43;3.13;;;;;;;16.97;85.76;96598.09;5010647;28;20183;-63
2021/07/29 01:48:36;;;;;;;3.50;3.20;;;;;;;16.87;86.44;96600.78;5011343;28;20180;-63
2021/07/29 01:51:01;;;;;;;5.90;3.00;;;;;;;17.09;85.18;96595.13;5011680;28;20205;-63
2021/07/29 01:53:26;;;;;;;3.60;3.30;;;;;;;17.02;85.82;96595.41;5010618;28;20249;-63
2021/07/29 01:55:52;;;;;;;3.57;3.27;;;;;;;17.01;85.67;96599.13;5011212;28;20184;-63
2021/07/29 01:58:17;;;;;;;4.93;3.40;;;;;;;17.09;85.50;96603.06;5010626;28;20171;-63
2021/07/29 02:00:45;;;;;;;4.60;3.60;;;;;;;16.97;85.70;96590.13;5014980;28;20183;-63
2021/07/29 02:03:11;;;;;;;3.60;3.30;;;;;;;16.99;85.67;96591.47;5014741;28;20202;-63
2021/07/29 02:05:36;;;;;;;3.80;3.50;;;;;;;17.01;85.60;96594.63;5015434;28;20301;-63
2021/07/29 02:08:02;;;;;;;3.63;3.30;;;;;;;17.01;85.55;96591.97;5015261;28;20194;-63
2021/07/29 02:10:28;;;;;;;4.47;3.53;;;;;;;16.88;86.36;96594.44;5014234;28;20191;-63
2021/07/29 02:12:55;;;;;;;3.60;3.30;;;;;;;16.85;86.61;96592.31;5015423;28;20183;-63
2021/07/29 02:15:21;;;;;;;4.20;3.20;;;;;;;16.90;86.14;96594.94;5014404;28;20229;-63
2021/07/29 02:17:46;;;;;;;4.20;3.50;;;;;;;16.99;85.59;96593.31;5015234;28;20183;-63
2021/07/29 02:20:13;;;;;;;3.40;3.10;;;;;;;16.98;85.72;96592.53;5014425;28;20574;-63
2021/07/29 02:22:38;;;;;;;3.27;2.97;;;;;;;16.85;86.31;96595.75;5046634;28;20195;-64
2021/07/29 02:25:05;;;;;;;4.27;3.60;;;;;;;16.86;86.10;96596.53;5014766;28;20184;-63
2021/07/29 02:27:32;;;;;;;4.00;3.27;;;;;;;16.92;85.82;96595.47;5014408;28;20274;-62
2021/07/29 02:29:57;;;;;;;3.40;3.10;;;;;;;16.76;86.59;96605.31;5015018;28;20189;-63
2021/07/29 02:32:24;;;;;;;3.53;3.23;;;;;;;16.84;86.21;96593.34;5014177;28;20188;-63
2021/07/29 02:34:50;;;;;;;4.73;3.10;;;;;;;16.85;86.11;96598.38;5014580;28;20171;-63
2021/07/29 02:37:16;;;;;;;4.37;3.93;;;;;;;16.73;86.82;96599.75;5013999;28;20187;-64
2021/07/29 02:39:41;;;;;;;6.60;3.23;;;;;;;16.82;85.98;96606.88;5014596;28;20227;-64
2021/07/29 02:42:07;;;;;;;3.57;3.20;;;;;;;16.80;86.09;96606.34;5022008;28;20215;-68
2021/07/29 02:44:34;;;;;;;5.57;2.90;;;;;;;16.80;86.13;96610.84;5033692;28;20228;-63
2021/07/29 02:46:59;;;;;;;4.87;3.53;;;;;;;16.84;85.82;96610.03;5034433;28;20171;-63
2021/07/29 02:49:25;;;;;;;4.30;3.10;;;;;;;16.80;85.75;96614.28;5033211;28;20198;-63
2021/07/29 02:51:50;;;;;;;3.50;3.20;;;;;;;16.73;86.28;96613.78;5033085;28;20536;-63
2021/07/29 02:54:16;;;;;;;3.43;3.13;;;;;;;16.53;87.60;96613.81;5033455;28;20678;-63
2021/07/29 02:56:41;;;;;;;4.10;3.23;;;;;;;16.66;86.91;96612.50;5033033;28;20197;-65
2021/07/29 02:59:07;;;;;;;3.77;3.47;;;;;;;16.81;85.79;96618.53;5034227;28;20179;-69
2021/07/29 03:01:32;;;;;;;3.17;2.87;;;;;;;16.77;85.91;96614.84;5033373;28;20651;-63
2021/07/29 03:03:57;;;;;;;3.67;3.17;;;;;;;16.88;85.27;96616.41;5065977;28;20207;-62
2021/07/29 03:06:23;;;;;;;3.47;3.13;;;;;;;16.73;86.14;96613.78;5033057;28;20205;-62
2021/07/29 03:08:48;;;;;;;3.80;3.50;;;;;;;16.62;86.91;96612.22;5034072;28;20183;-62
2021/07/29 03:11:14;;;;;;;4.07;3.30;;;;;;;16.56;87.05;96618.56;5033107;28;20187;-63
2021/07/29 03:13:39;;;;;;;3.47;3.17;;;;;;;16.59;86.84;96616.22;5033877;28;20200;-63
2021/07/29 03:16:04;;;;;;;4.30;3.30;;;;;;;16.73;85.93;96621.72;5033586;28;20190;-63
2021/07/29 03:18:30;;;;;;;3.47;3.17;;;;;;;16.55;86.69;96615.13;5033218;28;20615;-62
2021/07/29 03:20:55;;;;;;;3.13;2.93;;;;;;;16.50;86.89;96609.03;5032653;28;20225;-62
2021/07/29 03:23:21;;;;;;;3.70;3.27;;;;;;;16.39;87.58;96613.56;5033017;28;20229;-62
2021/07/29 03:25:49;;;;;;;4.13;3.70;;;;;;;16.46;87.17;96613.28;5033310;28;20175;-63
2021/07/29 03:28:15;;;;;;;4.20;3.80;;;;;;;16.65;85.83;96609.06;5032800;28;20197;-64
2021/07/29 03:30:40;;;;;;;3.60;3.30;;;;;;;16.44;87.14;96615.44;5033859;28;20190;-62
2021/07/29 03:33:07;;;;;;;6.07;3.80;;;;;;;16.34;87.39;96616.22;5032342;28;20193;-64
2021/07/29 03:35:32;;;;;;;4.40;3.47;;;;;;;16.26;87.69;96610.69;5032664;28;20178;-64
2021/07/29 03:37:57;;;;;;;3.87;3.40;;;;;;;16.31;87.59;96613.31;5031918;28;20186;-65
2021/07/29 03:40:23;;;;;;;3.60;3.27;;;;;;;16.28;87.68;96608.56;5032624;28;20190;-64
2021/07/29 03:42:48;;;;;;;3.90;3.40;;;;;;;16.50;86.10;96611.69;5015285;28;20235;-65
2021/07/29 03:45:13;;;;;;;3.70;3.40;;;;;;;16.35;86.71;96615.16;5012635;28;20254;-65
2021/07/29 03:47:39;;;;;;;4.17;3.63;;;;;;;16.39;86.38;96620.69;5013465;28;20234;-64
2021/07/29 03:50:06;;;;;;;3.57;3.27;;;;;;;16.21;87.31;96614.13;5013128;28;20529;-62
2021/07/29 03:52:31;;;;;;;4.57;3.17;;;;;;;16.38;86.15;96614.66;5044353;28;20245;-64
2021/07/29 03:54:56;;;;;;;4.63;3.33;;;;;;;16.42;85.99;96620.97;5011747;28;20183;-65
2021/07/29 03:57:23;;;;;;;4.30;3.27;;;;;;;16.57;85.07;96626.22;5011197;28;20191;-64
2021/07/29 03:59:49;;;;;;;3.90;3.60;;;;;;;16.55;85.21;96625.69;5013288;28;20706;-65
2021/07/29 04:02:15;;;;;;;4.10;3.60;;;;;;;16.56;84.71;96623.84;5012242;28;20198;-65
2021/07/29 04:04:40;;;;;;;3.73;3.43;;;;;;;16.49;85.33;96629.44;5013020;28;20334;-64
2021/07/29 04:07:07;;;;;;;3.60;3.30;;;;;;;16.45;85.43;96628.38;5013351;28;20187;-64
2021/07/29 04:09:33;;;;;;;4.30;3.50;;;;;;;16.53;84.81;96627.03;5012385;28;20190;-65
2021/07/29 04:11:59;;;;;;;4.97;3.17;;;;;;;16.49;84.96;96634.75;5013022;28;20184;-65
2021/07/29 04:14:24;;;;;;;5.07;3.67;;;;;;;16.57;84.08;96631.53;5012224;28;20521;-65
2021/07/29 04:16:54;;;;;;;3.77;3.40;;;;;;;16.52;84.63;96639.47;5012897;28;20179;-64
2021/07/29 04:19:20;;;;;;;5.23;3.40;;;;;;;16.67;83.77;96635.22;5011996;28;20537;-65
2021/07/29 04:21:46;;;;;;;4.60;3.90;;;;;;;16.62;83.90;96638.69;5012223;28;20176;-65
2021/07/29 04:24:11;;;;;;;3.50;3.20;;;;;;;16.75;83.05;96646.06;5012250;28;20211;-69
2021/07/29 04:26:38;;;;;;;3.40;3.10;;;;;;;16.68;83.51;96642.13;5012461;28;20225;-65
2021/07/29 04:29:04;;;;;;;4.00;3.43;;;;;;;16.61;84.12;96643.19;5044113;28;20179;-65
2021/07/29 04:31:29;;;;;;;5.23;3.47;;;;;;;16.49;84.82;96647.16;5011941;28;21059;-64
2021/07/29 04:33:54;;;;;;;3.43;3.13;;;;;;;16.74;83.25;96646.34;5012460;28;20180;-65
2021/07/29 04:36:20;;;;;;;5.23;3.70;;;;;;;16.89;81.69;96643.63;5011609;28;20175;-63
2021/07/29 04:38:45;;;;;;;3.27;2.97;;;;;;;17.07;80.80;96652.84;5044101;28;20237;-65
2021/07/29 04:41:10;;;;;;;3.30;3.00;;;;;;;17.09;80.57;96651.53;5019101;28;20289;-67
2021/07/29 04:43:36;;;;;;;4.80;3.20;;;;;;;17.02;80.96;96651.03;5031247;28;20222;-62
2021/07/29 04:46:04;;;;;;;3.30;3.00;;;;;;;16.92;80.72;96649.22;5031896;28;20183;-62
2021/07/29 04:48:31;;;;;;;3.57;3.27;;;;;;;17.00;80.31;96648.63;5030622;28;20182;-65
2021/07/29 04:51:03;;;;;;;5.10;3.10;;;;;;;17.12;79.91;96647.53;5031818;28;20210;-62
2021/07/29 04:53:30;;;;;;;3.30;3.00;;;;;;;17.21;79.11;96649.38;5031076;28;20273;-62
2021/07/29 04:55:55;;;;;;;2.93;2.73;;;;;;;17.06;79.75;96652.06;5030664;28;20275;-64
2021/07/29 04:58:21;;;;;;;3.30;2.80;;;;;;;17.10;79.61;96653.13;5031265;28;20210;-62
2021/07/29 05:00:46;;;;;;;3.10;2.47;;;;;;;17.16;79.51;96638.81;5031870;28;20182;-62
2021/07/29 05:03:11;;;;;;;2.83;2.60;;;;;;;17.23;78.76;96641.13;5031989;28;20194;-66
2021/07/29 05:05:37;;;;;;;2.80;2.60;;;;;;;17.20;78.46;96637.19;5031003;28;20197;-63
2021/07/29 05:08:02;;;;;;;3.93;2.57;;;;;;;17.18;78.67;96643.81;5030345;28;20716;-63
2021/07/29 05:10:28;;;;;;;2.60;2.40;;;;;;;17.32;77.67;96644.81;5030890;28;20193;-62
2021/07/29 05:12:54;;;;;;;3.23;2.60;;;;;;;17.50;76.52;96640.75;5031824;28;20643;-63
2021/07/29 05:15:19;;;;;;;4.87;2.50;;;;;;;17.44;76.95;96645.28;5030920;28;20182;-63
2021/07/29 05:17:45;;;;;;;2.87;2.53;;;;;;;17.52;76.49;96642.03;5031376;28;20183;-63
2021/07/29 05:20:10;;;;;;;3.33;3.03;;;;;;;17.61;76.24;96642.31;5031443;28;20266;-63
2021/07/29 05:22:36;;;;;;;5.10;2.30;;;;;;;17.70;75.54;96645.94;5030602;28;20182;-64
2021/07/29 05:25:02;;;;;;;2.63;2.43;;;;;;;17.76;75.52;96642.19;5031449;28;20220;-63
2021/07/29 05:27:27;;;;;;;2.53;2.33;;;;;;;18.26;73.86;96647.13;5030582;28;20179;-64
2021/07/29 05:29:53;;;;;;;2.40;2.23;;;;;;;18.68;72.34;96637.72;5031398;28;20185;-63
2021/07/29 05:32:18;;;;;;;2.63;2.33;;;;;;;18.88;70.96;96642.84;5030603;28;20617;-64
2021/07/29 05:34:43;;;;;;;3.97;2.60;;;;;;;19.06;70.42;96639.41;5033187;28;20190;-64
2021/07/29 05:37:09;;;;;;;3.35;2.58;;;;;;;19.38;69.29;96644.09;5034159;28;20212;-64
2021/07/29 05:39:34;;;;;;;3.72;2.33;;;;;;;19.61;68.21;96639.81;5033706;28;20823;-65
2021/07/29 05:42:01;;;;;;;2.72;2.30;;;;;;;19.67;67.70;96641.31;5016965;28;20565;-64
2021/07/29 05:44:27;;;;;;;3.85;2.45;;;;;;;19.38;68.63;96644.09;5014832;28;20289;-63
2021/07/29 05:46:52;;;;;;;6.30;2.60;;;;;;;19.23;69.29;96646.13;5015601;28;20282;-63
2021/07/29 05:49:17;;;;;;;2.97;2.70;;;;;;;19.17;69.66;96641.97;5013789;28;20186;-65
2021/07/29 05:51:43;;;;;;;3.63;2.75;;;;;;;19.34;69.01;96643.06;5014443;28;20262;-63
2021/07/29 05:54:08;;;;;;;4.18;2.25;;;;;;;19.34;69.38;96639.59;5015485;28;20186;-64
2021/07/29 05:56:33;;;;;;;2.83;2.13;;;;;;;19.56;68.61;96644.44;5014686;28;20236;-64
2021/07/29 05:58:59;;;;;;;4.57;2.80;;;;;;;19.51;68.95;96640.75;5015268;28;20564;-64
2021/07/29 06:01:24;;;;;;;4.88;2.50;;;;;;;19.59;68.95;96644.63;5014559;28;20246;-63
2021/07/29 06:03:49;;;;;;;2.65;2.35;;;;;;;19.70;68.52;96650.59;5014131;28;20291;-62
2021/07/29 06:06:15;;;;;;;5.95;2.70;;;;;;;19.70;68.71;96651.38;5014870;28;20218;-67
2021/07/29 06:08:40;;;;;;;2.88;2.35;;;;;;;19.87;68.02;96645.56;5015353;28;20180;-63
2021/07/29 06:11:06;;;;;;;2.38;2.17;;;;;;;19.95;68.08;96642.22;5015351;28;20291;-63
2021/07/29 06:13:31;;;;;;;2.80;2.60;;;;;;;20.05;68.02;96643.97;5013148;28;20187;-65
2021/07/29 06:16:02;;;;;;;2.22;2.03;;;;;;;20.39;67.11;96649.03;5015075;28;20191;-64
2021/07/29 06:18:27;;;;;;;2.50;2.15;;;;;;;20.79;65.91;96642.19;5014785;28;20187;-63
2021/07/29 06:20:52;;;;;;;2.78;2.10;;;;;;;21.19;64.96;96648.63;5014958;28;20237;-63
2021/07/29 06:23:18;;;;;;;1.95;1.80;;;;;;;21.39;63.92;96646.34;5014151;28;20210;-69
2021/07/29 06:25:43;;;;;;;2.15;2.00;;;;;;;21.41;64.07;96646.03;5015127;28;20640;-63
2021/07/29 06:28:16;;;;;;;4.13;2.10;;;;;;;21.65;63.45;96635.13;5015063;28;20284;-63
2021/07/29 06:30:44;;;;;;;2.05;1.95;;;;;;;21.70;62.45;96646.47;5013520;28;20183;-63
2021/07/29 06:33:10;;;;;;;2.00;1.88;;;;;;;21.82;62.60;96645.94;5014767;28;20188;-63
2021/07/29 06:35:35;;;;;;;2.35;1.70;;;;;;;21.63;63.16;96646.09;5013932;28;20241;-64
2021/07/29 06:38:00;;;;;;;2.22;1.80;;;;;;;22.10;62.08;96647.47;5014566;28;20187;-64
2021/07/29 06:40:26;;;;;;;2.22;1.85;;;;;;;22.29;60.74;96656.06;5022961;28;20236;-66
2021/07/29 06:42:51;;;;;;;3.00;1.77;;;;;;;22.25;60.39;96646.28;5034676;28;20209;-66
2021/07/29 06:45:17;;;;;;;2.00;1.75;;;;;;;22.48;60.10;96650.53;5033019;28;20186;-71
2021/07/29 06:47:42;;;;;;;2.53;2.05;;;;;;;22.73;59.27;96651.78;5033948;28;20190;-64
2021/07/29 06:50:08;;;;;;;1.77;1.67;;;;;;;22.90;59.01;96651.88;5033968;28;20184;-64
2021/07/29 06:52:33;;;;;;;2.42;2.22;;;;;;;22.74;59.55;96653.34;5033589;28;21069;-64
2021/07/29 06:54:59;;;;;;;1.70;1.60;;;;;;;22.59;59.12;96656.41;5034244;28;20266;-68
2021/07/29 06:57:24;;;;;;;1.73;1.63;;;;;;;22.44;59.55;96657.59;5033195;28;20273;-66
2021/07/29 06:59:49;;;;;;;1.83;1.73;;;;;;;22.67;58.79;96666.34;5034165;28;20270;-66
2021/07/29 07:02:15;;;;;;;2.78;2.00;;;;;;;22.37;58.40;96663.34;5033982;28;20226;-72
2021/07/29 07:04:41;;;;;;;2.42;1.60;;;;;;;22.30;58.43;96662.97;5033250;28;20217;-66
2021/07/29 07:07:16;;;;;;;2.30;1.90;;;;;;;22.51;57.90;96670.50;5033790;28;20675;-65
2021/07/29 07:09:43;;;;;;;2.95;1.80;;;;;;;22.96;57.26;96666.66;5033882;28;20191;-67
2021/07/29 07:12:08;;;;;;;4.65;1.90;;;;;;;23.11;56.06;96668.16;5032530;28;20534;-66
2021/07/29 07:14:34;;;;;;;2.47;2.28;;;;;;;23.14;55.65;96675.53;5032676;28;20189;-66
2021/07/29 07:16:59;;;;;;;1.90;1.77;;;;;;;23.27;55.02;96668.50;5033943;28;20233;-67
2021/07/29 07:19:24;;;;;;;2.22;1.70;;;;;;;23.40;55.13;96675.63;5032851;28;20588;-66
2021/07/29 07:21:50;;;;;;;2.65;1.88;;;;;;;23.57;54.82;96681.06;5033903;28;20274;-62
2021/07/29 07:24:15;;;;;;;2.25;1.80;;;;;;;23.08;54.97;96676.78;5033239;28;20199;-74
2021/07/29 07:26:41;;;;;;;2.13;1.67;;;;;;;22.92;55.91;96679.06;5031986;28;20620;-67
2021/07/29 07:29:06;;;;;;;2.17;1.98;;;;;;;22.73;56.04;96676.63;5033465;28;20202;-63
2021/07/29 07:31:31;;;;;;;1.65;1.55;;;;;;;22.88;55.38;96680.00;5033012;28;20262;-64
2021/07/29 07:33:58;;;;;;;2.13;1.92;;;;;;;23.12;54.55;96670.53;5033332;28;20187;-62
2021/07/29 07:36:24;;;;;;;2.35;2.15;;;;;;;23.17;53.91;96680.28;5032544;28;20235;-63
2021/07/29 07:38:52;;;;;;;3.90;2.08;;;;;;;23.18;53.08;96676.50;5031557;28;20313;-67
2021/07/29 07:41:18;;;;;;;2.40;2.20;;;;;;;23.09;54.29;96681.81;5012781;28;20187;-74
2021/07/29 07:43:44;;;;;;;2.50;2.10;;;;;;;22.64;53.75;96670.41;5020720;28;20929;-63
2021/07/29 07:46:09;;;;;;;3.80;2.50;;;;;;;22.96;53.94;96674.69;5032911;28;20225;-64
2021/07/29 07:48:34;;;;;;;2.15;1.67;;;;;;;23.42;54.19;96671.53;5031007;28;20185;-64
2021/07/29 07:51:00;;;;;;;2.22;1.83;;;;;;;23.58;52.76;96672.69;5033162;28;20261;-63
2021/07/29 07:53:27;;;;;;;2.22;2.03;;;;;;;23.73;50.92;96659.97;5031278;28;20201;-69
2021/07/29 07:55:53;;;;;;;2.28;1.98;;;;;;;23.99;50.97;96666.13;5032925;28;20178;-64
2021/07/29 07:58:19;;;;;;;2.20;2.00;;;;;;;24.10;50.07;96667.38;5031140;28;20190;-64
2021/07/29 08:00:44;;;;;;;2.20;2.10;;;;;;;24.34;49.50;96662.34;5033142;28;20174;-63
2021/07/29 08:03:11;;;;;;;2.97;1.92;;;;;;;24.62;48.80;96668.13;5032785;28;20226;-64
2021/07/29 08:05:37;;;;;;;2.00;1.90;;;;;;;24.14;49.27;96667.53;5032159;28;20554;-64
2021/07/29 08:08:06;;;;;;;2.45;1.90;;;;;;;24.21;49.35;96673.22;5032656;28;20608;-64
2021/07/29 08:10:32;;;;;;;2.22;1.90;;;;;;;23.66;49.97;96673.81;5032026;28;20312;-64
2021/07/29 08:12:57;;;;;;;2.33;1.88;;;;;;;23.60;50.70;96675.06;5031674;28;20210;-64
2021/07/29 08:15:22;;;;;;;3.10;2.35;;;;;;;23.40;51.38;96664.94;5031903;28;20175;-64
2021/07/29 08:17:48;;;;;;;2.47;2.10;;;;;;;23.55;51.10;96672.53;5032730;28;20516;-64
2021/07/29 08:20:13;;;;;;;4.32;2.08;;;;;;;23.24;51.56;96669.16;5032527;28;20616;-71
2021/07/29 08:22:39;;;;;;;2.85;2.20;;;;;;;23.31;51.74;96677.47;5031879;28;20533;-64
2021/07/29 08:25:04;;;;;;;4.60;2.35;;;;;;;23.45;51.72;96670.94;5032668;28;20622;-64
2021/07/29 08:27:34;;;;;;;3.90;2.00;;;;;;;23.53;51.92;96670.16;5032011;28;20182;-64
2021/07/29 08:30:00;;;;;;;5.43;2.17;;;;;;;23.70;51.58;96673.97;5032606;28;20201;-64
2021/07/29 08:32:27;;;;;;;2.30;1.92;;;;;;;24.06;49.85;96662.97;5031439;28;20228;-64
2021/07/29 08:34:53;;;;;;;2.60;2.28;;;;;;;24.13;49.41;96657.94;5032286;28;20281;-64
2021/07/29 08:37:18;;;;;;;2.50;2.30;;;;;;;24.13;49.66;96660.63;5031290;28;20682;-66
2021/07/29 08:39:43;;;;;;;4.00;1.90;;;;;;;23.67;49.74;96658.56;5030113;28;20691;-64
2021/07/29 08:42:10;;;;;;;2.25;2.05;;;;;;;23.68;49.94;96665.47;5032308;28;20612;-64
2021/07/29 08:44:36;;;;;;;2.67;2.40;;;;;;;23.98;49.47;96659.19;5031412;28;20202;-64
2021/07/29 08:47:08;;;;;;;4.80;2.15;;;;;;;23.88;50.27;96665.66;5032106;28;20206;-64
2021/07/29 08:49:37;;;;;;;2.53;2.33;;;;;;;23.77;50.12;96660.91;5030927;28;20620;-64
2021/07/29 08:52:03;;;;;;;2.40;2.20;;;;;;;23.57;50.00;96668.44;5031849;28;20254;-64
2021/07/29 08:54:28;;;;;;;2.10;2.00;;;;;;;23.39;50.39;96666.03;5031436;28;20631;-64
2021/07/29 08:56:54;;;;;;;3.13;2.50;;;;;;;23.43;50.01;96661.63;5031681;28;20639;-65
2021/07/29 08:59:19;;;;;;;2.47;2.22;;;;;;;23.06;49.33;96663.72;5031213;28;20214;-64
2021/07/29 09:01:49;;;;;;;6.70;2.67;;;;;;;23.36;48.38;96667.44;5032029;28;20244;-64
2021/07/29 09:04:15;;;;;;;3.40;2.13;;;;;;;23.38;47.94;96661.78;5031813;28;20634;-73
2021/07/29 09:07:02;;;;;;;2.40;2.20;;;;;;;23.48;47.53;96666.84;5031757;28;20183;-64
2021/07/29 09:09:42;;;;;;;2.30;1.95;;;;;;;23.32;48.10;96658.44;5030694;28;20643;-65
2021/07/29 09:12:24;;;;;;;2.60;2.22;;;;;;;23.51;47.93;96664.38;5031583;28;20589;-64
2021/07/29 09:14:52;;;;;;;2.72;2.20;;;;;;;23.54;46.79;96673.63;5030661;28;20185;-64
2021/07/29 09:17:19;;;;;;;2.40;2.17;;;;;;;23.41;47.22;96666.47;5030601;28;20701;-72
2021/07/29 09:19:49;;;;;;;2.35;2.17;;;;;;;23.76;46.59;96662.00;5031663;28;20182;-64
2021/07/29 09:22:20;;;;;;;2.17;1.98;;;;;;;23.55;45.59;96662.63;5030743;28;20241;-65
2021/07/29 09:25:04;;;;;;;2.47;2.15;;;;;;;23.47;46.22;96660.72;5030208;28;20206;-64
2021/07/29 09:27:38;;;;;;;2.50;2.30;;;;;;;23.40;46.04;96657.69;5030613;28;20182;-64
2021/07/29 09:30:18;;;;;;;3.40;2.42;;;;;;;23.45;46.75;96662.91;5031486;28;20181;-64
2021/07/29 09:33:04;;;;;;;2.55;2.35;;;;;;;23.46;46.09;96663.72;5031472;28;20178;-66
2021/07/29 09:35:47;;;;;;;2.88;2.50;;;;;;;23.78;47.29;96649.91;5030745;28;20174;-65
2021/07/29 09:38:23;;;;;;;2.30;2.00;;;;;;;23.91;45.89;96658.88;5025605;28;20202;-66
2021/07/29 09:40:56;;;;;;;4.30;2.40;;;;;;;24.04;46.06;96661.41;5011588;28;20218;-66
2021/07/29 09:43:22;;;;;;;3.05;2.30;;;;;;;24.26;45.29;96657.00;5010987;28;20294;-66
2021/07/29 09:45:50;;;;;;;3.20;2.50;;;;;;;24.71;45.08;96654.69;5011283;28;20183;-66
2021/07/29 09:48:18;;;;;;;2.80;2.20;;;;;;;24.98;44.79;96657.00;5010991;28;20255;-72
2021/07/29 09:50:45;;;;;;;2.40;2.17;;;;;;;24.97;43.48;96642.00;5011255;28;20214;-66
2021/07/29 09:53:10;;;;;;;2.10;2.00;;;;;;;24.74;43.89;96643.34;5011926;28;20183;-66
2021/07/29 09:55:36;;;;;;;2.45;2.25;;;;;;;24.52;43.79;96638.22;5009428;28;20275;-66
2021/07/29 09:58:03;;;;;;;4.53;2.70;;;;;;;24.52;43.58;96640.88;5011751;28;20184;-66
2021/07/29 10:00:29;;;;;;;3.22;2.50;;;;;;;24.71;43.69;96642.06;5010907;28;20183;-66
2021/07/29 10:02:58;;;;;;;2.50;2.10;;;;;;;24.49;43.53;96636.94;5011383;28;20565;-65
2021/07/29 10:05:30;;;;;;;2.60;2.30;;;;;;;24.21;44.47;96631.16;5010504;28;20259;-66
2021/07/29 10:07:58;;;;;;;2.88;2.63;;;;;;;24.19;45.33;96636.03;5011403;28;20605;-66
2021/07/29 10:10:25;;;;;;;2.35;2.10;;;;;;;24.20;44.70;96626.91;5009661;28;20199;-63
2021/07/29 10:12:52;;;;;;;3.38;2.35;;;;;;;24.75;44.87;96631.50;5028311;28;20190;-63
2021/07/29 10:15:40;;;;;;;2.47;2.28;;;;;;;24.37;46.25;96626.88;5031195;28;20175;-64
2021/07/29 10:18:07;;;;;;;4.22;2.15;;;;;;;25.02;45.04;96619.59;5030734;28;20536;-63
2021/07/29 10:20:34;;;;;;;2.65;2.13;;;;;;;24.98;43.82;96621.34;5031594;28;20194;-63
2021/07/29 10:23:26;;;;;;;2.38;2.17;;;;;;;24.96;44.26;96623.56;5034646;28;20538;-63
2021/07/29 10:25:51;;;;;;;2.55;2.35;;;;;;;24.55;44.45;96616.91;5029907;28;20536;-63
2021/07/29 10:28:35;;;;;;;2.63;2.42;;;;;;;24.32;45.11;96615.53;5033650;28;20186;-71
2021/07/29 10:31:02;;;;;;;3.05;2.53;;;;;;;24.24;44.90;96624.41;5034869;28;20169;-63
2021/07/29 10:33:28;;;;;;;2.20;2.10;;;;;;;24.14;44.82;96628.13;5033802;28;20185;-63
2021/07/29 10:35:58;;;;;;;4.20;2.60;;;;;;;23.82;45.00;96629.44;5034361;28;20178;-63
2021/07/29 10:38:38;;;;;;;2.75;2.55;;;;;;;23.59;46.01;96630.66;5031492;28;20230;-62
2021/07/29 10:41:24;;;;;;;2.75;2.50;;;;;;;23.39;46.47;96629.38;5034162;28;20194;-63
2021/07/29 10:43:50;;;;;;;2.58;2.38;;;;;;;23.60;45.99;96626.91;5022019;28;20218;-63
2021/07/29 10:46:15;;;;;;;2.92;2.72;;;;;;;23.83;45.17;96622.19;5033091;28;20232;-71
2021/07/29 10:48:44;;;;;;;3.53;2.90;;;;;;;24.13;45.42;96625.81;5030547;28;20240;-63
2021/07/29 10:51:23;;;;;;;2.50;2.30;;;;;;;24.31;45.81;96622.00;5032149;28;20201;-63
2021/07/29 10:53:56;;;;;;;2.38;2.13;;;;;;;24.63;45.33;96623.34;5033621;28;20240;-63
2021/07/29 10:56:26;;;;;;;3.15;2.55;;;;;;;24.71;43.76;96617.16;5032203;28;20241;-63
2021/07/29 10:58:56;;;;;;;4.65;2.65;;;;;;;24.86;42.91;96621.97;5033437;28;20205;-63
2021/07/29 11:01:22;;;;;;;2.78;2.40;;;;;;;24.93;43.79;96616.16;5031482;28;20241;-63
2021/07/29 11:04:00;;;;;;;2.63;2.25;;;;;;;24.64;43.15;96612.28;5033682;28;20198;-63
2021/07/29 11:06:36;;;;;;;3.05;2.78;;;;;;;24.86;43.58;96613.94;5030265;28;20879;-62
2021/07/29 11:09:14;;;;;;;2.83;2.58;;;;;;;24.66;43.43;96606.63;5033274;28;20554;-62
2021/07/29 11:11:40;;;;;;;3.05;2.58;;;;;;;24.69;43.72;96611.31;5032031;28;20190;-62
2021/07/29 11:14:07;;;;;;;3.10;2.80;;;;;;;24.68;43.19;96607.09;5032507;28;20269;-62
2021/07/29 11:16:33;;;;;;;3.50;2.45;;;;;;;24.91;42.66;96605.75;5031148;28;20648;-64
2021/07/29 11:19:01;;;;;;;2.70;2.50;;;;;;;25.29;42.66;96599.56;5033302;28;20268;-63
2021/07/29 11:21:26;;;;;;;4.25;2.67;;;;;;;25.29;42.40;96596.88;5032107;28;20183;-62
2021/07/29 11:23:52;;;;;;;2.70;2.22;;;;;;;25.69;42.05;96589.97;5033000;28;20719;-63
2021/07/29 11:26:17;;;;;;;2.65;2.45;;;;;;;25.42;42.65;96601.97;5031980;28;20194;-69
2021/07/29 11:28:43;;;;;;;2.95;2.38;;;;;;;25.23;42.85;96596.28;5032254;28;20193;-67
2021/07/29 11:31:08;;;;;;;4.85;2.60;;;;;;;24.80;43.32;96602.59;5032004;28;20201;-63
2021/07/29 11:33:34;;;;;;;2.95;2.53;;;;;;;24.66;43.60;96599.38;5031137;28;20201;-64
2021/07/29 11:36:10;;;;;;;2.58;2.38;;;;;;;24.28;43.86;96593.97;5032263;28;20179;-62